Time;durP1;ratioP1;P1;durP2;ratioP2;P2;SDS_P1;SDS_P2;PMS_P1;PMS_P2;Temp;Humidity;BMP_temperature;BMP_pressure;BME280_temperature;BME280_humidity;BME280_pressure;Samples;Min_cycle;Max_cycle;Signal;HPM_P1;HPM_P2
2022/07/27 00:01:12;;;;;;;15.20;8.75;;;;;;;12.99;77.26;101904.59;5110143;28;20441;-60
2022/07/27 00:03:38;;;;;;;14.05;8.68;;;;;;;13.03;77.31;101912.03;5110272;28;20027;-63
2022/07/27 00:06:03;;;;;;;15.23;8.38;;;;;;;13.05;76.76;101895.06;5110227;28;20528;-61
2022/07/27 00:08:28;;;;;;;17.08;8.88;;;;;;;13.04;77.25;101902.59;5110219;28;20483;-60
2022/07/27 00:10:54;;;;;;;16.73;8.88;;;;;;;12.99;77.36;101905.41;5110143;28;20500;-60
2022/07/27 00:13:19;;;;;;;14.18;8.75;;;;;;;12.95;77.26;101902.41;5112143;28;20027;-60
2022/07/27 00:15:45;;;;;;;15.27;9.10;;;;;;;12.96;77.60;101908.81;5112417;28;20081;-63
2022/07/27 00:18:10;;;;;;;14.43;8.43;;;;;;;12.93;78.11;101906.59;5112046;28;20027;-60
2022/07/27 00:20:36;;;;;;;16.65;8.88;;;;;;;12.91;77.80;101909.69;5113681;28;20038;-60
2022/07/27 00:23:01;;;;;;;16.80;8.82;;;;;;;12.92;77.70;101907.72;5112434;28;20027;-60
2022/07/27 00:25:27;;;;;;;16.45;8.38;;;;;;;12.86;78.13;101911.69;5113596;28;20329;-61
2022/07/27 00:27:53;;;;;;;16.42;8.80;;;;;;;12.81;78.38;101912.59;5114124;28;20027;-59
2022/07/27 00:30:19;;;;;;;15.52;8.73;;;;;;;12.79;78.75;101906.50;5113423;28;20031;-60
2022/07/27 00:32:44;;;;;;;16.42;8.90;;;;;;;12.74;79.04;101910.16;5113594;28;20039;-61
2022/07/27 00:35:10;;;;;;;15.60;8.90;;;;;;;12.71;78.93;101901.59;5113459;28;20030;-60
2022/07/27 00:37:36;;;;;;;13.85;8.70;;;;;;;12.72;79.36;101906.03;5113799;28;20035;-60
2022/07/27 00:40:01;;;;;;;15.02;8.50;;;;;;;12.70;79.46;101911.88;5113379;28;20493;-60
2022/07/27 00:42:27;;;;;;;18.42;8.85;;;;;;;12.67;79.20;101903.28;5114062;28;20543;-59
2022/07/27 00:44:54;;;;;;;17.20;8.85;;;;;;;12.64;79.08;101907.47;5113431;28;20050;-60
2022/07/27 00:47:20;;;;;;;16.45;8.50;;;;;;;12.60;79.45;101900.88;5111866;28;20428;-60
2022/07/27 00:49:45;;;;;;;15.65;8.40;;;;;;;12.55;79.84;101904.53;5111564;28;20355;-60
2022/07/27 00:52:11;;;;;;;17.23;9.00;;;;;;;12.56;79.73;101902.56;5113445;28;20032;-60
2022/07/27 00:54:37;;;;;;;14.60;8.50;;;;;;;12.50;79.62;101899.03;5113217;28;20027;-60
2022/07/27 00:57:03;;;;;;;17.88;8.75;;;;;;;12.48;80.10;101902.09;5114100;28;20088;-61
2022/07/27 00:59:29;;;;;;;13.95;8.07;;;;;;;12.48;79.86;101907.66;5114067;28;20052;-61
2022/07/27 01:01:54;;;;;;;16.20;8.77;;;;;;;12.47;80.44;101903.22;5114472;27;20102;-61
2022/07/27 01:04:20;;;;;;;15.15;8.77;;;;;;;12.45;80.59;101901.88;5111831;28;20039;-60
2022/07/27 01:06:45;;;;;;;14.55;8.88;;;;;;;12.42;80.62;101910.78;5113404;28;20027;-59
2022/07/27 01:11:55;;;;;;;13.82;8.75;;;;;;;12.39;80.93;101908.56;5113303;28;20127;-61
2022/07/27 01:14:20;;;;;;;18.88;9.23;;;;;;;12.35;81.12;101899.19;5113143;28;20051;-58
2022/07/27 01:16:46;;;;;;;18.83;8.82;;;;;;;12.40;81.35;101902.75;5113788;28;20504;-60
2022/07/27 01:19:13;;;;;;;16.52;9.32;;;;;;;12.42;81.08;101908.81;5111849;28;20041;-61
2022/07/27 01:21:38;;;;;;;16.33;9.18;;;;;;;12.40;81.03;101899.97;5111310;28;20470;-60
2022/07/27 01:24:04;;;;;;;15.52;8.63;;;;;;;12.34;80.59;101901.13;5112421;28;20055;-59
2022/07/27 01:26:30;;;;;;;17.08;8.65;;;;;;;12.23;80.73;101897.63;5112724;28;20023;-59
2022/07/27 01:28:57;;;;;;;17.05;8.88;;;;;;;12.16;81.24;101902.69;5112687;28;20031;-59
2022/07/27 01:31:22;;;;;;;15.13;8.85;;;;;;;12.10;81.54;101906.63;5112350;28;20110;-60
2022/07/27 01:33:48;;;;;;;16.38;8.75;;;;;;;12.05;81.57;101909.44;5112707;28;20039;-59
2022/07/27 01:36:13;;;;;;;16.88;9.00;;;;;;;11.98;81.75;101910.59;5112254;28;20104;-59
2022/07/27 01:38:39;;;;;;;15.93;8.90;;;;;;;11.93;82.46;101907.03;5112652;28;20027;-59
2022/07/27 01:41:04;;;;;;;17.20;9.30;;;;;;;11.91;82.35;101910.06;5112539;28;20083;-59
2022/07/27 01:43:29;;;;;;;19.02;9.05;;;;;;;11.88;82.59;101907.03;5112543;28;20110;-59
2022/07/27 01:45:55;;;;;;;15.48;8.95;;;;;;;11.81;83.80;101901.81;5112390;28;20031;-59
2022/07/27 01:48:21;;;;;;;16.63;9.30;;;;;;;11.73;83.81;101894.13;5112524;28;20057;-59
2022/07/27 01:50:46;;;;;;;18.45;9.52;;;;;;;11.77;84.58;101893.25;5112431;28;20042;-60
2022/07/27 01:53:12;;;;;;;16.45;9.40;;;;;;;11.75;84.65;101892.75;5111028;28;20028;-60
2022/07/27 01:55:38;;;;;;;19.75;9.50;;;;;;;11.65;85.28;101888.06;5112315;28;20030;-59
2022/07/27 01:58:06;;;;;;;16.08;9.48;;;;;;;11.68;85.01;101898.59;5110796;28;20028;-59
2022/07/27 02:00:32;;;;;;;17.20;9.60;;;;;;;11.67;85.44;101896.94;5112100;28;20096;-60
2022/07/27 02:02:57;;;;;;;17.88;9.32;;;;;;;11.67;85.24;101891.41;5112070;28;20024;-59
2022/07/27 02:05:23;;;;;;;17.83;10.10;;;;;;;11.60;85.41;101898.38;5111774;28;20023;-60
2022/07/27 02:07:48;;;;;;;16.73;9.13;;;;;;;11.60;85.80;101898.38;5112047;28;20110;-59
2022/07/27 02:10:14;;;;;;;17.35;9.35;;;;;;;11.57;85.89;101897.00;5111819;28;20446;-60
2022/07/27 02:12:39;;;;;;;17.60;9.43;;;;;;;11.51;86.05;101882.34;5111941;28;20085;-60
2022/07/27 02:15:14;;;;;;;16.38;9.90;;;;;;;11.51;86.26;101896.22;5111763;28;20051;-60
2022/07/27 02:17:41;;;;;;;17.75;9.30;;;;;;;11.48;86.61;101895.97;5111643;28;20161;-60
2022/07/27 02:20:08;;;;;;;16.17;8.88;;;;;;;11.43;86.39;101891.28;5111748;28;20096;-60
2022/07/27 02:22:33;;;;;;;17.42;9.48;;;;;;;11.43;86.41;101891.28;5109895;28;20043;-60
2022/07/27 02:24:59;;;;;;;16.52;9.23;;;;;;;11.40;86.71;101897.38;5111573;28;20035;-60
2022/07/27 02:27:25;;;;;;;15.60;9.30;;;;;;;11.37;86.58;101893.25;5111571;28;20034;-60
2022/07/27 02:29:52;;;;;;;18.02;9.48;;;;;;;11.33;86.85;101894.09;5111262;28;20045;-59
2022/07/27 02:32:17;;;;;;;16.45;9.30;;;;;;;11.29;86.51;101893.03;5111002;28;20034;-60
2022/07/27 02:34:43;;;;;;;16.70;8.80;;;;;;;11.27;87.49;101884.16;5111011;28;20024;-59
2022/07/27 02:37:08;;;;;;;16.67;8.98;;;;;;;11.27;88.70;101885.00;5110154;28;20120;-59
2022/07/27 02:39:34;;;;;;;18.50;9.20;;;;;;;11.26;88.80;101890.81;5111293;28;20569;-60
2022/07/27 02:41:59;;;;;;;18.25;9.10;;;;;;;11.22;89.24;101883.06;5111024;28;20046;-59
2022/07/27 02:44:25;;;;;;;18.35;9.57;;;;;;;11.23;89.40;101886.69;5110827;28;20367;-59
2022/07/27 02:46:50;;;;;;;17.75;9.38;;;;;;;11.24;88.91;101880.03;5110983;28;20063;-59
2022/07/27 02:49:16;;;;;;;18.20;9.63;;;;;;;11.24;89.30;101882.81;5111037;28;20110;-60
2022/07/27 02:51:41;;;;;;;20.00;9.95;;;;;;;11.19;88.98;101874.50;5110854;28;20015;-60
2022/07/27 02:54:06;;;;;;;17.80;9.57;;;;;;;11.17;88.92;101874.81;5110631;28;20027;-60
2022/07/27 02:56:32;;;;;;;17.02;9.82;;;;;;;11.14;89.67;101867.06;5110689;28;20035;-59
2022/07/27 02:58:58;;;;;;;17.65;9.63;;;;;;;11.17;89.60;101873.97;5111176;28;20035;-60
2022/07/27 03:01:23;;;;;;;19.17;9.70;;;;;;;11.16;89.46;101878.69;5110595;28;20034;-60
2022/07/27 03:03:48;;;;;;;17.27;9.30;;;;;;;11.15;89.28;101879.78;5110600;28;20538;-59
2022/07/27 03:06:14;;;;;;;18.70;9.60;;;;;;;11.11;90.19;101875.91;5111016;28;20035;-60
2022/07/27 03:08:39;;;;;;;20.80;9.88;;;;;;;11.08;89.95;101870.97;5110869;28;20030;-60
2022/07/27 03:11:05;;;;;;;18.15;9.80;;;;;;;11.07;90.20;101872.09;5092484;28;20032;-59
2022/07/27 03:13:30;;;;;;;17.65;9.30;;;;;;;11.06;90.56;101874.00;5110882;28;20043;-60
2022/07/27 03:15:56;;;;;;;17.67;9.93;;;;;;;11.05;90.05;101880.66;5110838;28;20118;-60
2022/07/27 03:18:21;;;;;;;18.65;10.00;;;;;;;11.02;89.58;101877.63;5110668;28;20480;-60
2022/07/27 03:20:47;;;;;;;16.42;9.35;;;;;;;10.95;89.74;101872.44;5110475;28;20059;-59
2022/07/27 03:23:12;;;;;;;17.83;9.50;;;;;;;10.99;89.89;101881.81;5110534;28;20443;-60
2022/07/27 03:25:38;;;;;;;20.05;9.80;;;;;;;10.97;90.61;101875.72;5109420;28;20032;-60
2022/07/27 03:28:04;;;;;;;16.90;9.35;;;;;;;10.99;90.19;101886.53;5110907;28;20035;-60
2022/07/27 03:30:29;;;;;;;17.90;9.63;;;;;;;10.98;90.15;101884.88;5110541;28;20023;-60
2022/07/27 03:32:55;;;;;;;17.85;9.93;;;;;;;11.02;90.79;101889.56;5110443;28;20035;-60
2022/07/27 03:35:20;;;;;;;17.25;10.10;;;;;;;11.01;90.50;101882.34;5110042;28;20068;-59
2022/07/27 03:37:45;;;;;;;21.23;10.98;;;;;;;10.96;90.46;101879.59;5110812;28;20035;-60
2022/07/27 03:40:11;;;;;;;18.20;9.90;;;;;;;10.98;90.81;101882.09;5110157;28;20133;-60
2022/07/27 03:42:37;;;;;;;20.67;9.80;;;;;;;11.02;90.82;101884.00;5110481;28;20027;-59
2022/07/27 03:45:03;;;;;;;18.38;10.57;;;;;;;11.03;90.70;101888.44;5091930;28;20077;-59
2022/07/27 03:47:28;;;;;;;18.38;10.40;;;;;;;11.03;90.84;101896.75;5110945;28;20035;-59
2022/07/27 03:49:54;;;;;;;16.80;9.63;;;;;;;11.02;90.48;101889.56;5114489;27;20024;-59
2022/07/27 03:52:19;;;;;;;19.55;10.70;;;;;;;11.03;90.67;101896.75;5113122;28;20070;-59
2022/07/27 03:54:47;;;;;;;19.25;10.73;;;;;;;10.99;91.13;101889.28;5114522;28;20027;-59
2022/07/27 03:57:13;;;;;;;19.35;10.40;;;;;;;10.87;91.73;101884.06;5112934;28;20059;-61
2022/07/27 03:59:38;;;;;;;17.65;10.07;;;;;;;10.90;91.72;101886.28;5112571;28;20054;-60
2022/07/27 04:02:04;;;;;;;19.38;10.20;;;;;;;10.90;91.44;101897.34;5114477;28;20051;-60
2022/07/27 04:04:30;;;;;;;17.42;10.18;;;;;;;10.82;91.87;101890.44;5114334;28;20049;-61
2022/07/27 04:06:56;;;;;;;19.98;10.13;;;;;;;10.79;91.16;101885.50;5114044;28;20096;-60
2022/07/27 04:09:21;;;;;;;18.50;10.15;;;;;;;10.70;90.89;101885.22;5113949;28;20518;-61
2022/07/27 04:11:46;;;;;;;18.17;10.85;;;;;;;10.73;91.23;101890.22;5114465;28;20075;-60
2022/07/27 04:14:12;;;;;;;19.17;10.80;;;;;;;10.80;91.34;101897.38;5114124;28;20427;-58
2022/07/27 04:16:38;;;;;;;19.05;10.38;;;;;;;10.77;90.90;101907.91;5113804;28;20055;-58
2022/07/27 04:19:05;;;;;;;20.23;10.60;;;;;;;10.79;90.71;101899.34;5114267;28;20051;-60
2022/07/27 04:21:30;;;;;;;19.02;10.32;;;;;;;10.76;91.64;101897.97;5114307;28;20176;-60
2022/07/27 04:23:55;;;;;;;17.63;10.40;;;;;;;10.76;90.93;101909.03;5114195;28;20456;-60
2022/07/27 04:26:22;;;;;;;19.13;11.00;;;;;;;10.76;90.85;101902.66;5114061;28;20032;-61
2022/07/27 04:28:47;;;;;;;18.83;9.90;;;;;;;10.76;91.37;101897.97;5112545;28;20050;-60
2022/07/27 04:31:13;;;;;;;19.40;10.18;;;;;;;10.79;91.37;101902.09;5114735;28;20460;-60
2022/07/27 04:33:38;;;;;;;18.00;10.20;;;;;;;10.79;91.17;101901.25;5112809;28;20101;-60
2022/07/27 04:36:04;;;;;;;18.13;10.00;;;;;;;10.81;91.33;101904.56;5114226;28;20459;-61
2022/07/27 04:38:29;;;;;;;18.40;10.10;;;;;;;10.84;91.49;101904.03;5113691;28;20041;-61
2022/07/27 04:40:54;;;;;;;18.63;10.38;;;;;;;10.90;91.52;101902.88;5113785;28;20055;-61
2022/07/27 04:43:20;;;;;;;19.35;10.23;;;;;;;10.95;91.01;101913.09;5113244;28;20020;-60
2022/07/27 04:45:45;;;;;;;17.60;10.20;;;;;;;11.00;91.14;101916.69;5113929;28;20387;-60
2022/07/27 04:48:11;;;;;;;17.13;10.23;;;;;;;11.00;91.31;101913.91;5113680;28;20371;-60
2022/07/27 04:50:43;;;;;;;19.95;9.93;;;;;;;11.04;91.64;101909.47;5113893;28;20027;-60
2022/07/27 04:53:10;;;;;;;19.27;10.43;;;;;;;11.11;92.02;101908.34;5113787;28;20036;-60
2022/07/27 04:55:37;;;;;;;18.20;10.60;;;;;;;11.19;92.19;101916.88;5113426;28;20040;-64
2022/07/27 04:58:02;;;;;;;18.70;10.45;;;;;;;11.24;91.57;101900.25;5113349;28;20057;-60
2022/07/27 05:00:28;;;;;;;19.63;10.38;;;;;;;11.37;91.63;101912.63;5112153;28;20028;-60
2022/07/27 05:02:53;;;;;;;19.08;10.50;;;;;;;11.44;91.07;101917.88;5113541;28;20032;-60
2022/07/27 05:05:19;;;;;;;19.60;10.73;;;;;;;11.53;91.11;101926.41;5113412;28;20031;-60
2022/07/27 05:07:44;;;;;;;18.90;10.23;;;;;;;11.64;90.86;101914.13;5113728;28;20423;-61
2022/07/27 05:10:10;;;;;;;18.25;10.25;;;;;;;11.75;90.23;101922.38;5113717;28;20032;-61
2022/07/27 05:12:36;;;;;;;19.10;10.57;;;;;;;11.83;89.72;101919.00;5111666;28;20032;-60
2022/07/27 05:15:02;;;;;;;18.85;10.30;;;;;;;11.91;89.70;101925.88;5113481;27;20131;-60
2022/07/27 05:17:27;;;;;;;19.23;10.18;;;;;;;11.98;89.15;101916.16;5111314;28;20189;-60
2022/07/27 05:19:52;;;;;;;19.08;9.85;;;;;;;12.05;88.88;101924.13;5112812;28;20066;-60
2022/07/27 05:22:18;;;;;;;19.65;10.40;;;;;;;12.12;88.95;101935.75;5112771;28;20027;-60
2022/07/27 05:24:44;;;;;;;20.65;10.70;;;;;;;12.15;88.60;101929.59;5112657;28;20031;-61
2022/07/27 05:27:10;;;;;;;18.88;10.80;;;;;;;12.25;88.56;101933.38;5112811;28;20034;-60
2022/07/27 05:29:36;;;;;;;19.23;10.30;;;;;;;12.31;87.95;101940.56;5112924;28;20031;-60
2022/07/27 05:32:01;;;;;;;20.95;10.88;;;;;;;12.39;88.24;101937.16;5112586;28;20387;-61
2022/07/27 05:34:27;;;;;;;18.45;10.30;;;;;;;12.45;86.91;101941.53;5112931;28;20038;-60
2022/07/27 05:36:52;;;;;;;18.92;10.60;;;;;;;12.55;87.56;101937.00;5112537;28;20034;-61
2022/07/27 05:39:17;;;;;;;19.42;10.82;;;;;;;12.62;86.81;101932.78;5112571;28;20157;-60
2022/07/27 05:41:43;;;;;;;18.75;10.52;;;;;;;12.73;86.42;101930.72;5112848;28;20126;-61
2022/07/27 05:44:09;;;;;;;18.52;10.38;;;;;;;12.80;85.86;101933.94;5110871;28;20027;-64
2022/07/27 05:46:35;;;;;;;21.20;10.63;;;;;;;12.93;84.80;101945.50;5112432;28;20386;-60
2022/07/27 05:49:00;;;;;;;18.70;10.15;;;;;;;12.97;84.28;101938.22;5112213;28;20134;-60
2022/07/27 05:51:26;;;;;;;18.23;10.13;;;;;;;13.02;84.66;101940.13;5112101;27;20031;-62
2022/07/27 05:53:51;;;;;;;18.00;10.00;;;;;;;13.07;84.23;101940.88;5112568;28;20027;-60
2022/07/27 05:56:16;;;;;;;18.38;9.93;;;;;;;13.17;84.23;101944.66;5112104;28;20026;-60
2022/07/27 05:58:42;;;;;;;18.88;10.45;;;;;;;13.20;83.64;101938.50;5111817;28;20103;-60
2022/07/27 06:01:07;;;;;;;18.30;10.43;;;;;;;13.33;83.32;101946.13;5112163;28;20167;-60
2022/07/27 06:03:32;;;;;;;19.23;10.00;;;;;;;13.38;81.80;101948.00;5111659;28;20026;-60
2022/07/27 06:08:43;;;;;;;18.25;9.93;;;;;;;13.49;81.43;101952.34;5112068;28;20073;-60
2022/07/27 06:11:09;;;;;;;16.77;9.27;;;;;;;13.56;80.09;101952.78;5111906;28;20020;-60
2022/07/27 06:13:35;;;;;;;16.48;9.40;;;;;;;13.62;80.22;101961.03;5110737;28;20066;-59
2022/07/27 06:16:01;;;;;;;18.27;9.88;;;;;;;13.68;80.48;101954.31;5112464;28;20050;-60
2022/07/27 06:18:26;;;;;;;18.33;9.80;;;;;;;13.79;80.97;101957.75;5112334;28;20032;-60
2022/07/27 06:20:52;;;;;;;18.05;9.65;;;;;;;13.85;80.09;101953.75;5112321;28;20383;-60
2022/07/27 06:23:17;;;;;;;19.10;10.30;;;;;;;13.88;80.72;101956.78;5111710;28;20155;-60
2022/07/27 06:25:43;;;;;;;20.02;9.50;;;;;;;13.89;79.53;101952.03;5112092;28;20054;-59
2022/07/27 06:28:08;;;;;;;19.40;10.30;;;;;;;13.94;79.37;101954.72;5112213;28;20080;-61
2022/07/27 06:30:34;;;;;;;15.80;9.70;;;;;;;13.97;79.25;101964.44;5111944;28;20055;-60
2022/07/27 06:33:03;;;;;;;19.08;9.85;;;;;;;14.06;78.90;101967.34;5112072;28;20095;-60
2022/07/27 06:35:28;;;;;;;18.70;9.40;;;;;;;14.10;78.40;101966.44;5112096;28;20020;-60
2022/07/27 06:37:54;;;;;;;17.50;9.35;;;;;;;14.15;77.77;101960.81;5111940;28;20459;-60
2022/07/27 06:40:19;;;;;;;19.38;9.70;;;;;;;14.20;78.48;101963.50;5111402;28;20368;-61
2022/07/27 06:42:45;;;;;;;18.45;9.73;;;;;;;14.24;77.98;101968.47;5111559;28;20118;-60
2022/07/27 06:45:10;;;;;;;17.90;9.75;;;;;;;14.30;77.85;101961.66;5111754;28;20031;-61
2022/07/27 06:47:38;;;;;;;17.85;9.88;;;;;;;14.37;77.51;101962.09;5112027;28;20028;-60
2022/07/27 06:50:04;;;;;;;15.57;9.43;;;;;;;14.41;76.36;101962.31;5109858;28;20471;-60
2022/07/27 06:52:29;;;;;;;16.88;9.80;;;;;;;14.46;77.53;101965.84;5111659;28;20028;-60
2022/07/27 06:54:55;;;;;;;18.73;9.70;;;;;;;14.52;76.61;101961.00;5111468;28;20027;-60
2022/07/27 06:57:20;;;;;;;18.70;9.55;;;;;;;14.63;77.33;101961.66;5112045;28;20478;-60
2022/07/27 06:59:46;;;;;;;16.73;9.27;;;;;;;14.69;76.03;101966.03;5111853;27;20382;-61
2022/07/27 07:02:11;;;;;;;18.27;9.93;;;;;;;14.71;75.00;101963.75;5111549;28;20040;-60
2022/07/27 07:04:36;;;;;;;17.90;9.60;;;;;;;14.72;75.34;101959.00;5111724;28;20395;-61
2022/07/27 07:07:02;;;;;;;18.08;9.93;;;;;;;14.72;75.32;101959.00;5112154;28;20037;-60
2022/07/27 07:09:28;;;;;;;18.85;10.50;;;;;;;14.85;75.55;101963.78;5110083;28;20022;-61
2022/07/27 07:11:54;;;;;;;18.42;10.30;;;;;;;14.97;75.45;101969.66;5111785;28;20051;-60
2022/07/27 07:14:19;;;;;;;18.38;10.05;;;;;;;15.16;75.41;101973.50;5111731;28;20106;-61
2022/07/27 07:16:45;;;;;;;18.40;10.70;;;;;;;15.21;74.09;101984.56;5111688;28;20039;-61
2022/07/27 07:19:11;;;;;;;18.30;10.50;;;;;;;15.24;73.75;101978.34;5111536;28;20387;-60
2022/07/27 07:21:36;;;;;;;16.73;9.60;;;;;;;15.28;72.99;101988.56;5111256;28;20035;-61
2022/07/27 07:24:02;;;;;;;17.63;10.13;;;;;;;15.29;73.27;101981.03;5114535;28;20113;-61
2022/07/27 07:26:27;;;;;;;18.67;9.90;;;;;;;15.37;72.66;101991.44;5115579;28;20446;-60
2022/07/27 07:28:52;;;;;;;17.95;10.00;;;;;;;15.47;72.26;101984.00;5115389;28;20056;-59
2022/07/27 07:31:19;;;;;;;15.50;9.20;;;;;;;15.53;70.56;101972.44;5115311;28;20016;-59
2022/07/27 07:33:45;;;;;;;17.25;9.18;;;;;;;15.63;70.12;101976.94;5116014;28;20027;-60
2022/07/27 07:36:10;;;;;;;15.48;8.40;;;;;;;15.77;68.85;101979.69;5115490;28;20038;-60
2022/07/27 07:38:36;;;;;;;17.35;8.27;;;;;;;15.89;67.71;101985.59;5115717;28;20027;-61
2022/07/27 07:41:01;;;;;;;16.20;8.80;;;;;;;15.95;66.96;101979.88;5115126;28;20036;-60
2022/07/27 07:43:27;;;;;;;15.25;8.38;;;;;;;16.15;66.38;101984.97;5115481;28;20027;-61
2022/07/27 07:45:53;;;;;;;14.00;8.20;;;;;;;16.24;64.41;101978.63;5114074;28;20035;-61
2022/07/27 07:48:20;;;;;;;14.65;8.38;;;;;;;16.28;64.05;101991.63;5115936;28;20065;-61
2022/07/27 07:50:46;;;;;;;14.95;8.02;;;;;;;16.49;65.58;101994.72;5115231;28;20103;-61
2022/07/27 07:53:13;;;;;;;12.93;7.90;;;;;;;16.68;63.57;102002.06;5113910;28;20015;-60
2022/07/27 07:55:39;;;;;;;19.48;8.70;;;;;;;16.66;62.87;101993.22;5115333;28;20035;-61
2022/07/27 07:58:04;;;;;;;15.63;7.93;;;;;;;16.76;62.54;101992.09;5115223;28;20023;-61
2022/07/27 08:00:29;;;;;;;14.43;7.38;;;;;;;16.73;60.28;101996.38;5114907;28;20297;-59
2022/07/27 08:02:58;;;;;;;14.23;7.65;;;;;;;16.68;60.87;102002.91;5114718;28;20036;-59
2022/07/27 08:05:24;;;;;;;13.15;7.45;;;;;;;16.71;59.94;101993.06;5114945;28;20088;-59
2022/07/27 08:07:51;;;;;;;12.70;8.07;;;;;;;16.83;60.94;101998.88;5114459;28;20433;-59
2022/07/27 08:10:18;;;;;;;11.80;7.15;;;;;;;17.08;59.72;101999.34;5114501;28;20118;-59
2022/07/27 08:12:47;;;;;;;12.82;7.40;;;;;;;17.01;58.30;101990.63;5114456;28;20080;-60
2022/07/27 08:15:13;;;;;;;15.65;7.70;;;;;;;17.15;58.69;102001.69;5112996;28;20065;-59
2022/07/27 08:17:39;;;;;;;13.95;7.70;;;;;;;17.30;56.15;101997.63;5114797;28;20106;-60
2022/07/27 08:20:05;;;;;;;10.52;7.78;;;;;;;17.47;56.66;101999.66;5113260;28;20122;-60
2022/07/27 08:22:31;;;;;;;12.30;7.70;;;;;;;17.65;55.81;102002.50;5114627;28;20023;-60
2022/07/27 08:24:56;;;;;;;14.23;7.50;;;;;;;17.58;53.43;102000.16;5114582;28;20031;-60
2022/07/27 08:27:21;;;;;;;11.73;7.80;;;;;;;17.65;53.70;102006.09;5114160;28;20179;-60
2022/07/27 08:29:47;;;;;;;13.38;7.50;;;;;;;17.77;54.52;102008.25;5114348;28;20046;-60
2022/07/27 08:32:12;;;;;;;15.13;7.68;;;;;;;17.77;53.12;102002.66;5113119;28;20439;-60
2022/07/27 08:34:38;;;;;;;9.75;7.32;;;;;;;17.77;53.11;102006.28;5114006;28;20030;-60
2022/07/27 08:37:03;;;;;;;12.52;7.70;;;;;;;17.56;52.11;101991.25;5114310;28;20038;-60
2022/07/27 08:39:29;;;;;;;12.40;7.40;;;;;;;17.43;53.93;101998.66;5114180;27;20355;-60
2022/07/27 08:41:57;;;;;;;12.80;6.97;;;;;;;17.28;53.31;101991.53;5113888;28;20059;-60
2022/07/27 08:44:23;;;;;;;12.48;7.10;;;;;;;17.15;52.79;101993.28;5114540;28;20023;-60
2022/07/27 08:46:50;;;;;;;11.65;7.78;;;;;;;17.13;52.60;101996.44;5113950;28;20134;-60
2022/07/27 08:49:16;;;;;;;13.63;7.32;;;;;;;17.13;52.47;101988.03;5113752;28;20045;-61
2022/07/27 08:51:42;;;;;;;9.38;6.95;;;;;;;17.23;53.41;101991.69;5112220;28;20164;-60
2022/07/27 08:54:09;;;;;;;13.38;7.00;;;;;;;17.25;53.44;101986.56;5113961;28;20110;-60
2022/07/27 08:56:35;;;;;;;11.00;7.00;;;;;;;17.30;51.82;101987.25;5113846;28;20024;-60
2022/07/27 08:59:00;;;;;;;11.07;7.47;;;;;;;17.50;51.74;101978.59;5113786;28;20027;-60
2022/07/27 09:01:25;;;;;;;11.85;7.13;;;;;;;17.75;52.48;101985.38;5113877;28;20027;-59
2022/07/27 09:03:51;;;;;;;12.20;7.13;;;;;;;17.75;47.42;101979.78;5111734;28;20352;-59
2022/07/27 09:06:49;;;;;;;11.00;7.10;;;;;;;17.86;48.56;101994.28;5112880;28;20083;-59
2022/07/27 09:09:19;;;;;;;10.07;7.57;;;;;;;17.73;47.25;101984.88;5111463;28;20027;-60
2022/07/27 09:12:07;;;;;;;13.70;8.15;;;;;;;17.87;49.93;101993.94;5113794;28;20467;-58
2022/07/27 09:14:35;;;;;;;12.80;7.20;;;;;;;17.85;48.52;101995.41;5113218;28;20119;-59
2022/07/27 09:17:25;;;;;;;12.20;7.10;;;;;;;18.00;49.95;102000.56;5112839;28;20474;-59
2022/07/27 09:19:54;;;;;;;11.63;7.40;;;;;;;18.15;48.82;101988.03;5103070;28;20032;-59
2022/07/27 09:22:46;;;;;;;10.77;7.40;;;;;;;18.38;49.95;101990.66;5111630;28;20066;-60
2022/07/27 09:25:15;;;;;;;13.10;7.28;;;;;;;18.35;48.16;101980.94;5113230;28;20458;-60
2022/07/27 09:27:42;;;;;;;13.15;7.93;;;;;;;18.64;49.71;101986.97;5113309;28;20089;-60
2022/07/27 09:30:10;;;;;;;12.20;7.20;;;;;;;18.73;47.24;101995.38;5113374;28;20088;-60
2022/07/27 09:32:37;;;;;;;15.27;7.57;;;;;;;18.46;48.00;101987.00;5113141;28;20062;-60
2022/07/27 09:35:43;;;;;;;9.63;7.10;;;;;;;18.21;48.59;102003.53;5113398;28;20027;-60
2022/07/27 09:38:22;;;;;;;11.68;7.60;;;;;;;18.02;49.54;101994.66;5029684;28;20071;-60
2022/07/27 09:41:00;;;;;;;13.07;7.40;;;;;;;18.09;48.86;101987.38;5029769;28;20236;-58
2022/07/27 09:43:27;;;;;;;14.45;7.28;;;;;;;18.35;49.57;101989.34;5084002;28;20108;-60
2022/07/27 09:45:53;;;;;;;12.73;7.60;;;;;;;18.44;47.98;101985.72;5112261;28;20114;-59
2022/07/27 09:48:20;;;;;;;11.38;7.05;;;;;;;18.53;49.06;101989.31;5111648;28;20329;-59
2022/07/27 09:50:57;;;;;;;16.42;7.40;;;;;;;18.68;48.88;101988.78;5112613;28;20432;-60
2022/07/27 09:53:25;;;;;;;15.43;8.10;;;;;;;18.96;47.59;101981.97;5112812;28;20063;-60
2022/07/27 09:55:59;;;;;;;13.15;7.75;;;;;;;18.99;46.43;101982.09;5112609;28;20034;-60
2022/07/27 09:58:48;;;;;;;11.27;7.50;;;;;;;19.04;46.73;101983.06;5112755;28;20046;-59
2022/07/27 10:01:16;;;;;;;12.68;7.30;;;;;;;19.04;45.85;101986.69;5112616;28;20018;-60
2022/07/27 10:03:44;;;;;;;13.30;8.10;;;;;;;19.13;45.62;101990.28;5112380;28;20146;-60
2022/07/27 10:06:11;;;;;;;15.00;7.20;;;;;;;19.17;45.27;101980.06;5110922;28;20104;-60
2022/07/27 10:08:41;;;;;;;11.35;6.85;;;;;;;19.30;45.84;101980.13;5112755;28;20023;-60
2022/07/27 10:11:07;;;;;;;14.50;7.18;;;;;;;19.50;45.81;101981.34;5112021;28;20035;-60
2022/07/27 10:13:33;;;;;;;11.02;6.70;;;;;;;19.73;45.64;101981.84;5110589;28;20034;-61
2022/07/27 10:16:03;;;;;;;12.00;6.90;;;;;;;19.53;43.29;101980.66;5110875;28;20019;-59
2022/07/27 10:18:44;;;;;;;11.52;6.97;;;;;;;19.70;44.38;101982.53;5111700;28;20027;-60
2022/07/27 10:21:10;;;;;;;9.13;6.72;;;;;;;19.77;42.72;101976.38;5112065;28;20104;-60
2022/07/27 10:23:39;;;;;;;13.90;7.22;;;;;;;20.00;43.07;101974.06;5112107;28;20066;-59
2022/07/27 10:26:13;;;;;;;15.88;7.28;;;;;;;20.07;42.83;101977.13;5112180;28;20024;-60
2022/07/27 10:29:01;;;;;;;13.35;7.55;;;;;;;20.16;43.39;101965.84;5111721;28;20028;-60
2022/07/27 10:31:32;;;;;;;12.02;6.93;;;;;;;20.32;42.76;101962.38;5112305;28;20031;-60
2022/07/27 10:34:00;;;;;;;13.07;7.22;;;;;;;20.38;41.94;101967.44;5111907;28;20030;-60
2022/07/27 10:36:28;;;;;;;13.15;7.15;;;;;;;20.20;42.37;101977.19;5111793;28;20046;-59
2022/07/27 10:38:56;;;;;;;13.23;7.22;;;;;;;20.42;42.39;101959.94;5112063;28;20023;-59
2022/07/27 10:41:22;;;;;;;15.07;7.20;;;;;;;20.58;42.68;101964.91;5109954;28;20111;-60
2022/07/27 10:43:50;;;;;;;14.68;7.53;;;;;;;20.72;42.16;101968.19;5111745;28;20041;-61
2022/07/27 10:46:21;;;;;;;12.57;7.10;;;;;;;20.85;42.18;101960.63;5112123;28;20030;-60
2022/07/27 10:48:47;;;;;;;13.40;7.15;;;;;;;21.18;41.50;101964.50;5112171;28;20047;-61
2022/07/27 10:51:15;;;;;;;13.13;7.15;;;;;;;21.08;40.64;101956.53;5111663;28;20077;-60
2022/07/27 10:53:42;;;;;;;12.25;7.13;;;;;;;20.86;41.63;101967.91;5111690;28;20464;-61
2022/07/27 10:56:08;;;;;;;12.95;7.20;;;;;;;20.52;41.98;101955.88;5111695;28;20039;-60
2022/07/27 10:58:34;;;;;;;14.63;8.00;;;;;;;20.72;41.48;101956.94;5110787;28;20030;-60
2022/07/27 11:01:02;;;;;;;13.52;8.30;;;;;;;20.63;42.19;101941.38;5110368;28;20023;-61
2022/07/27 11:03:32;;;;;;;15.13;7.93;;;;;;;20.65;43.12;101953.91;5111344;28;20024;-60
2022/07/27 11:06:16;;;;;;;20.23;14.05;;;;;;;20.48;44.26;101949.28;5109868;28;20373;-59
2022/07/27 11:08:44;;;;;;;12.95;8.27;;;;;;;20.38;44.84;101946.91;5111499;28;20035;-58
2022/07/27 11:11:17;;;;;;;12.38;7.85;;;;;;;20.05;45.83;101939.34;5111549;28;20024;-59
2022/07/27 11:13:44;;;;;;;15.23;8.07;;;;;;;19.83;46.57;101941.28;5110037;28;20309;-59
2022/07/27 11:16:12;;;;;;;15.63;8.63;;;;;;;19.64;46.14;101953.84;5111318;28;20027;-59
2022/07/27 11:18:39;;;;;;;17.20;10.57;;;;;;;19.33;47.24;101951.41;5110915;28;20028;-59